createdAt,value
2022-10-26T00:00:26.465Z,49.91
2022-10-26T00:02:55.043Z,49.89
2022-10-26T00:05:22.671Z,49.75
2022-10-26T00:07:50.134Z,49.92
2022-10-26T00:10:16.685Z,50.01
2022-10-26T00:12:43.498Z,49.84
2022-10-26T00:15:10.222Z,49.85
2022-10-26T00:17:36.675Z,49.85
2022-10-26T00:20:03.335Z,49.67
2022-10-26T00:22:29.802Z,49.81
2022-10-26T00:24:56.288Z,49.64
2022-10-26T00:27:22.749Z,49.88
2022-10-26T00:29:49.222Z,49.81
2022-10-26T00:32:15.661Z,49.63
2022-10-26T00:34:42.092Z,49.82
2022-10-26T00:37:09.632Z,49.92
2022-10-26T00:39:36.944Z,49.88
2022-10-26T00:42:03.376Z,50.06
2022-10-26T00:44:48.017Z,49.71
2022-10-26T00:47:25.549Z,49.88
2022-10-26T00:49:55.888Z,49.79
2022-10-26T00:52:23.616Z,49.67
2022-10-26T00:54:50.872Z,49.96
2022-10-26T00:57:18.619Z,49.73
2022-10-26T00:59:46.509Z,49.83
2022-10-26T01:02:13.445Z,49.81
2022-10-26T01:04:40.211Z,49.81
2022-10-26T01:07:08.508Z,49.73
2022-10-26T01:09:36.092Z,49.79
2022-10-26T01:12:02.531Z,49.91
2022-10-26T01:14:29.752Z,49.76
2022-10-26T01:17:11.021Z,50.00
2022-10-26T01:19:37.395Z,49.61
2022-10-26T01:22:13.864Z,49.80
2022-10-26T01:25:06.645Z,49.78
2022-10-26T01:27:54.480Z,49.99
2022-10-26T01:30:40.350Z,49.73
2022-10-26T01:33:31.617Z,49.71
2022-10-26T01:39:25.002Z,49.95
2022-10-26T01:41:55.036Z,49.83
2022-10-26T01:44:41.888Z,49.86
2022-10-26T01:47:12.048Z,49.86
2022-10-26T01:49:43.733Z,49.98
2022-10-26T01:52:10.860Z,49.95
2022-10-26T01:57:13.080Z,49.88
2022-10-26T02:00:00.596Z,49.76
2022-10-26T02:02:39.089Z,49.91
2022-10-26T02:05:30.029Z,49.95
2022-10-26T02:08:15.865Z,49.69
2022-10-26T02:11:02.808Z,49.71
2022-10-26T02:13:52.923Z,49.96
2022-10-26T02:16:27.565Z,49.89
2022-10-26T02:19:21.711Z,49.82
2022-10-26T02:21:54.620Z,49.87
2022-10-26T02:24:23.391Z,49.96
2022-10-26T02:26:53.008Z,49.92
2022-10-26T02:29:21.151Z,49.79
2022-10-26T02:31:50.708Z,49.95
2022-10-26T02:34:24.082Z,49.75
2022-10-26T02:36:53.744Z,49.78
2022-10-26T02:39:21.479Z,49.83
2022-10-26T02:41:48.867Z,49.85
2022-10-26T02:44:18.803Z,49.91
2022-10-26T02:46:45.659Z,49.82
2022-10-26T02:49:12.145Z,49.89
2022-10-26T02:52:02.351Z,49.99
2022-10-26T02:54:46.983Z,49.87
2022-10-26T02:57:21.105Z,49.90
2022-10-26T02:59:47.994Z,49.77
2022-10-26T03:02:17.772Z,49.84
2022-10-26T03:04:44.271Z,49.79
2022-10-26T03:07:10.749Z,49.80
2022-10-26T03:09:37.232Z,49.79
2022-10-26T03:12:03.892Z,49.83
2022-10-26T03:14:30.445Z,49.94
2022-10-26T03:16:56.903Z,49.98
2022-10-26T03:19:23.331Z,49.96
2022-10-26T03:21:49.772Z,49.91
2022-10-26T03:24:16.219Z,49.91
2022-10-26T03:26:42.720Z,49.90
2022-10-26T03:29:09.295Z,50.06
2022-10-26T03:31:36.017Z,49.88
2022-10-26T03:34:02.506Z,49.89
2022-10-26T03:36:28.947Z,49.78
2022-10-26T03:38:55.371Z,49.93
2022-10-26T03:41:21.793Z,49.85
2022-10-26T03:43:48.860Z,49.92
2022-10-26T03:46:15.358Z,49.96
2022-10-26T03:48:41.837Z,49.81
2022-10-26T03:51:08.421Z,49.78
2022-10-26T03:53:34.929Z,49.76
2022-10-26T03:56:01.402Z,49.68
2022-10-26T03:58:27.927Z,49.78
2022-10-26T04:00:54.412Z,49.91
2022-10-26T04:03:20.888Z,49.80
2022-10-26T04:05:47.363Z,49.82
2022-10-26T04:08:13.952Z,49.79
2022-10-26T04:10:40.440Z,49.88
2022-10-26T04:13:06.912Z,49.95
2022-10-26T04:15:33.384Z,49.71
2022-10-26T04:18:01.902Z,49.70
2022-10-26T04:20:29.630Z,49.71
2022-10-26T04:23:00.780Z,49.67
2022-10-26T04:25:30.177Z,49.87
2022-10-26T04:28:00.056Z,49.78
2022-10-26T04:30:26.700Z,49.79
2022-10-26T04:32:53.155Z,49.70
2022-10-26T04:35:19.660Z,49.72
2022-10-26T04:37:46.170Z,49.77
2022-10-26T04:40:12.712Z,49.67
2022-10-26T04:42:47.528Z,49.73
2022-10-26T04:45:15.655Z,49.79
2022-10-26T04:47:42.435Z,49.70
2022-10-26T04:52:36.604Z,49.61
2022-10-26T04:55:06.029Z,49.71
2022-10-26T04:57:34.199Z,49.75
2022-10-26T05:00:02.276Z,49.64
2022-10-26T05:02:29.504Z,49.77
2022-10-26T05:04:56.058Z,49.64
2022-10-26T05:07:22.608Z,49.73
2022-10-26T05:09:49.040Z,49.76
2022-10-26T05:12:15.527Z,49.67
2022-10-26T05:14:42.072Z,45.97
2022-10-26T05:17:08.520Z,48.03
2022-10-26T05:19:34.967Z,48.43
2022-10-26T05:22:01.438Z,49.00
2022-10-26T05:24:27.892Z,49.22
2022-10-26T05:26:54.393Z,49.27
2022-10-26T05:29:20.923Z,49.42
2022-10-26T05:31:47.390Z,49.23
2022-10-26T05:34:13.864Z,49.33
2022-10-26T05:36:40.323Z,49.55
2022-10-26T05:39:06.973Z,49.05
2022-10-26T05:41:33.441Z,49.37
2022-10-26T05:44:00.007Z,49.16
2022-10-26T05:46:26.488Z,49.28
2022-10-26T05:48:52.941Z,49.33
2022-10-26T05:51:19.426Z,49.32
2022-10-26T05:53:45.904Z,49.21
2022-10-26T05:56:20.717Z,49.32
2022-10-26T05:58:48.149Z,49.21
2022-10-26T06:01:20.648Z,49.21
2022-10-26T06:03:49.856Z,49.09
2022-10-26T06:06:16.565Z,49.13
2022-10-26T06:08:43.327Z,49.17
2022-10-26T06:11:10.482Z,49.15
2022-10-26T06:13:37.253Z,49.46
2022-10-26T06:16:06.587Z,49.16
2022-10-26T06:18:41.433Z,49.35
2022-10-26T06:21:34.152Z,49.24
2022-10-26T06:24:18.320Z,49.33
2022-10-26T06:26:59.217Z,49.50
2022-10-26T06:29:54.571Z,49.97
2022-10-26T06:32:23.000Z,49.37
2022-10-26T06:34:52.292Z,49.22
2022-10-26T06:37:19.665Z,49.34
2022-10-26T06:39:48.958Z,49.41
2022-10-26T06:42:17.881Z,49.13
2022-10-26T06:44:44.560Z,49.49
2022-10-26T06:47:31.301Z,49.39
2022-10-26T06:50:09.377Z,49.39
2022-10-26T06:52:43.521Z,49.44
2022-10-26T06:55:15.320Z,49.28
2022-10-26T06:57:43.959Z,49.33
2022-10-26T07:00:25.331Z,49.39
2022-10-26T07:02:52.390Z,49.46
2022-10-26T07:05:19.182Z,49.21
2022-10-26T07:07:48.171Z,49.39
2022-10-26T07:10:15.616Z,49.42
2022-10-26T07:12:42.104Z,49.51
2022-10-26T07:17:48.672Z,49.54
2022-10-26T07:20:17.537Z,49.40
2022-10-26T07:22:44.099Z,49.58
2022-10-26T07:25:12.298Z,49.60
2022-10-26T07:27:39.037Z,49.44
2022-10-26T07:30:06.217Z,49.42
2022-10-26T07:32:33.060Z,49.48
2022-10-26T07:34:59.560Z,49.63
2022-10-26T07:37:26.053Z,49.58
2022-10-26T07:39:52.493Z,49.50
2022-10-26T07:42:19.023Z,49.75
2022-10-26T07:44:45.532Z,49.47
2022-10-26T07:47:12.028Z,49.51
2022-10-26T07:49:39.317Z,49.52
2022-10-26T07:52:05.828Z,49.66
2022-10-26T07:54:32.892Z,49.44
2022-10-26T07:56:59.509Z,49.49
2022-10-26T07:59:26.085Z,49.45
2022-10-26T08:01:52.930Z,49.49
2022-10-26T08:04:19.426Z,49.44
2022-10-26T08:06:47.163Z,49.53
2022-10-26T08:09:13.603Z,49.48
2022-10-26T08:11:40.132Z,49.65
2022-10-26T08:14:06.625Z,49.39
2022-10-26T08:16:34.954Z,49.29
2022-10-26T08:19:01.499Z,49.50
2022-10-26T08:21:36.533Z,49.38
2022-10-26T08:24:06.664Z,49.44
2022-10-26T08:26:33.207Z,49.39
2022-10-26T08:28:59.659Z,49.40
2022-10-26T08:31:26.133Z,49.60
2022-10-26T08:33:52.628Z,49.21
2022-10-26T08:36:28.373Z,49.36
2022-10-26T08:38:54.870Z,49.38
2022-10-26T08:41:30.943Z,49.52
2022-10-26T08:44:03.443Z,49.37
2022-10-26T08:46:37.983Z,49.45
2022-10-26T08:49:19.211Z,49.31
2022-10-26T08:51:47.576Z,49.33
2022-10-26T08:54:24.601Z,49.44
2022-10-26T08:56:55.748Z,49.34
2022-10-26T08:59:40.408Z,49.43
2022-10-26T09:02:14.847Z,49.48
2022-10-26T09:04:42.086Z,49.40
2022-10-26T09:07:29.980Z,49.25
2022-10-26T09:10:18.270Z,49.23
2022-10-26T09:12:59.772Z,49.23
2022-10-26T09:15:29.227Z,49.23
2022-10-26T09:17:58.694Z,49.16
2022-10-26T09:20:47.052Z,49.15
2022-10-26T09:23:38.548Z,49.31
2022-10-26T09:26:10.789Z,49.33
2022-10-26T09:28:38.752Z,49.17
2022-10-26T09:31:05.724Z,49.25
2022-10-26T09:33:39.620Z,49.14
2022-10-26T09:36:18.348Z,49.28
2022-10-26T09:39:08.392Z,49.36
2022-10-26T09:41:47.616Z,49.25
2022-10-26T09:44:27.153Z,49.44
2022-10-26T09:47:31.519Z,49.33
2022-10-26T09:50:07.604Z,49.40
2022-10-26T09:52:34.121Z,49.28
2022-10-26T09:55:00.611Z,49.48
2022-10-26T09:57:27.575Z,49.33
2022-10-26T09:59:55.696Z,49.46
2022-10-26T10:02:40.457Z,49.43
2022-10-26T10:08:27.968Z,49.29
2022-10-26T10:11:37.581Z,49.18
2022-10-26T10:14:08.847Z,49.30
2022-10-26T10:16:36.114Z,49.27
2022-10-26T10:19:02.649Z,49.30
2022-10-26T10:21:36.553Z,49.14
2022-10-26T10:24:04.904Z,49.28
2022-10-26T10:26:31.401Z,49.20
2022-10-26T10:29:00.883Z,49.30
2022-10-26T10:31:29.857Z,49.13
2022-10-26T10:33:56.859Z,49.10
2022-10-26T10:36:32.341Z,49.26
2022-10-26T10:38:59.906Z,49.33
2022-10-26T10:41:32.585Z,49.30
2022-10-26T10:44:15.301Z,49.33
2022-10-26T10:46:41.917Z,49.23
2022-10-26T10:49:24.815Z,49.08
2022-10-26T10:51:51.788Z,49.00
2022-10-26T10:54:24.836Z,49.17
2022-10-26T10:57:03.276Z,49.11
2022-10-26T11:00:01.862Z,49.32
2022-10-26T11:02:37.201Z,49.25
2022-10-26T11:05:38.240Z,49.21
2022-10-26T11:08:12.881Z,49.10
2022-10-26T11:10:44.827Z,49.12
2022-10-26T11:13:22.291Z,49.18
2022-10-26T11:15:53.773Z,49.12
2022-10-26T11:18:31.025Z,49.13
2022-10-26T11:21:06.915Z,49.16
2022-10-26T11:23:48.892Z,49.26
2022-10-26T11:26:27.269Z,49.20
2022-10-26T11:28:59.576Z,49.19
2022-10-26T11:31:31.568Z,49.23
2022-10-26T11:34:19.166Z,49.03
2022-10-26T11:36:52.116Z,49.10
2022-10-26T11:39:42.814Z,49.26
2022-10-26T11:42:51.270Z,49.08
2022-10-26T11:45:25.249Z,49.30
2022-10-26T11:47:56.318Z,49.58
2022-10-26T11:50:30.664Z,49.17
2022-10-26T11:53:05.262Z,49.19
2022-10-26T11:55:31.926Z,49.28
2022-10-26T11:57:59.057Z,49.21
2022-10-26T12:00:26.996Z,49.26
2022-10-26T12:03:17.191Z,48.98
2022-10-26T12:05:51.755Z,49.25
2022-10-26T12:08:30.519Z,49.17
2022-10-26T12:13:54.248Z,49.17
2022-10-26T12:17:03.651Z,49.19
2022-10-26T12:19:55.099Z,49.18
2022-10-26T12:22:26.484Z,49.15
2022-10-26T12:25:15.283Z,49.18
2022-10-26T12:27:42.017Z,49.34
2022-10-26T12:30:17.216Z,49.22
2022-10-26T12:32:43.905Z,49.39
2022-10-26T12:35:31.835Z,49.04
2022-10-26T12:37:59.600Z,49.18
2022-10-26T12:40:40.689Z,49.11
2022-10-26T12:43:16.364Z,49.27
2022-10-26T12:45:44.369Z,48.95
2022-10-26T12:48:38.873Z,49.27
2022-10-26T12:51:24.768Z,49.23
2022-10-26T12:54:15.787Z,49.27
2022-10-26T12:56:46.020Z,49.19
2022-10-26T12:59:42.954Z,49.15
2022-10-26T13:02:12.335Z,49.16
2022-10-26T13:04:50.933Z,49.19
2022-10-26T13:07:22.348Z,49.26
2022-10-26T13:10:02.012Z,49.20
2022-10-26T13:12:36.389Z,49.29
2022-10-26T13:15:06.746Z,49.14
2022-10-26T13:20:06.652Z,49.08
2022-10-26T13:22:33.359Z,49.04
2022-10-26T13:25:05.786Z,49.15
2022-10-26T13:27:34.917Z,49.22
2022-10-26T13:30:04.358Z,49.13
2022-10-26T13:32:38.750Z,49.19
2022-10-26T13:35:10.692Z,49.11
2022-10-26T13:37:43.840Z,49.23
2022-10-26T13:40:18.568Z,49.18
2022-10-26T13:42:48.589Z,49.44
2022-10-26T13:45:26.261Z,49.23
2022-10-26T13:48:14.757Z,49.32
2022-10-26T13:50:53.579Z,49.21
2022-10-26T13:53:32.209Z,49.12
2022-10-26T13:56:08.682Z,49.17
2022-10-26T13:58:45.647Z,49.15
2022-10-26T14:01:16.744Z,49.17
2022-10-26T14:03:43.980Z,49.08
2022-10-26T14:06:34.189Z,49.13
2022-10-26T14:09:05.039Z,49.05
2022-10-26T14:11:43.137Z,48.97
2022-10-26T14:14:29.596Z,49.22
2022-10-26T14:16:56.985Z,49.17
2022-10-26T14:19:23.379Z,49.06
2022-10-26T14:21:50.948Z,49.16
2022-10-26T14:24:31.432Z,49.07
2022-10-26T14:27:18.886Z,49.14
2022-10-26T14:29:49.857Z,49.00
2022-10-26T14:32:35.664Z,49.08
2022-10-26T14:35:02.291Z,49.04
2022-10-26T14:37:40.375Z,49.06
2022-10-26T14:40:08.023Z,49.06
2022-10-26T14:42:44.604Z,49.11
2022-10-26T14:45:47.639Z,49.16
2022-10-26T14:48:31.403Z,49.13
2022-10-26T14:51:05.477Z,49.01
2022-10-26T14:53:38.897Z,49.14
2022-10-26T14:56:24.104Z,48.96
2022-10-26T14:58:51.570Z,48.96
2022-10-26T15:01:33.192Z,49.23
2022-10-26T15:04:06.055Z,49.13
2022-10-26T15:06:40.328Z,49.20
2022-10-26T15:09:07.039Z,49.00
2022-10-26T15:11:35.415Z,49.10
2022-10-26T15:14:02.482Z,49.37
2022-10-26T15:16:32.984Z,49.24
2022-10-26T15:19:23.730Z,48.96
2022-10-26T15:21:52.254Z,49.02
2022-10-26T15:24:31.106Z,49.14
2022-10-26T15:27:00.841Z,48.98
2022-10-26T15:29:43.792Z,49.21
2022-10-26T15:32:31.435Z,49.02
2022-10-26T15:35:19.645Z,49.04
2022-10-26T15:37:47.478Z,49.10
2022-10-26T15:40:14.558Z,48.69
2022-10-26T15:42:42.632Z,49.17
2022-10-26T15:45:24.848Z,48.98
2022-10-26T15:47:53.264Z,49.25
2022-10-26T15:50:22.857Z,49.11
2022-10-26T15:52:50.602Z,49.09
2022-10-26T15:55:17.672Z,49.03
2022-10-26T15:57:44.511Z,49.06
2022-10-26T16:00:16.078Z,48.95
2022-10-26T16:02:44.882Z,48.92
2022-10-26T16:05:13.471Z,49.04
2022-10-26T16:07:43.142Z,48.96
2022-10-26T16:10:17.055Z,49.16
2022-10-26T16:12:43.583Z,49.03
2022-10-26T16:15:17.372Z,49.16
2022-10-26T16:17:44.279Z,49.18
2022-10-26T16:20:14.657Z,49.54
2022-10-26T16:22:46.770Z,49.14
2022-10-26T16:25:13.928Z,49.15
2022-10-26T16:27:40.761Z,49.11
2022-10-26T16:30:08.016Z,49.15
2022-10-26T16:32:34.493Z,49.23
2022-10-26T16:35:00.930Z,49.20
2022-10-26T16:37:29.744Z,49.09
2022-10-26T16:39:56.187Z,49.07
2022-10-26T16:42:22.669Z,49.20
2022-10-26T16:44:49.121Z,49.09
2022-10-26T16:47:15.887Z,49.21
2022-10-26T16:49:43.418Z,49.43
2022-10-26T16:52:10.827Z,49.34
2022-10-26T16:54:37.185Z,49.20
2022-10-26T16:57:04.393Z,49.23
2022-10-26T16:59:31.200Z,49.22
2022-10-26T17:01:57.821Z,49.34
2022-10-26T17:04:24.449Z,49.16
2022-10-26T17:06:50.953Z,49.19
2022-10-26T17:09:17.421Z,49.23
2022-10-26T17:11:43.908Z,49.44
2022-10-26T17:14:10.361Z,49.34
2022-10-26T17:16:36.857Z,49.37
2022-10-26T17:19:03.420Z,49.45
2022-10-26T17:21:32.642Z,49.24
2022-10-26T17:23:59.116Z,49.40
2022-10-26T17:26:25.767Z,49.38
2022-10-26T17:28:53.665Z,49.48
2022-10-26T17:31:20.697Z,49.42
2022-10-26T17:33:50.883Z,49.36
2022-10-26T17:36:20.358Z,49.38
2022-10-26T17:38:50.421Z,49.32
2022-10-26T17:41:19.183Z,49.29
2022-10-26T17:43:48.727Z,49.51
2022-10-26T17:46:20.849Z,49.28
2022-10-26T17:48:47.356Z,49.09
2022-10-26T17:51:16.847Z,49.16
2022-10-26T17:53:43.555Z,49.36
2022-10-26T17:56:12.040Z,49.32
2022-10-26T17:58:39.338Z,49.30
2022-10-26T18:01:08.569Z,49.22
2022-10-26T18:03:36.229Z,49.26
2022-10-26T18:06:03.119Z,49.27
2022-10-26T18:08:32.421Z,49.27
2022-10-26T18:10:59.127Z,49.31
2022-10-26T18:13:31.331Z,49.24
2022-10-26T18:16:12.939Z,49.33
2022-10-26T18:18:41.057Z,49.76
2022-10-26T18:21:10.295Z,50.52
2022-10-26T18:23:38.133Z,50.93
2022-10-26T18:26:26.473Z,51.82
2022-10-26T18:28:54.846Z,53.24
2022-10-26T18:31:23.325Z,52.79
2022-10-26T18:33:56.314Z,52.20
2022-10-26T18:36:23.242Z,52.40
2022-10-26T18:38:49.747Z,52.40
2022-10-26T18:41:17.673Z,51.90
2022-10-26T18:43:49.823Z,51.90
2022-10-26T18:46:20.818Z,51.86
2022-10-26T18:48:48.322Z,51.67
2022-10-26T18:51:17.606Z,51.70
2022-10-26T18:53:45.515Z,51.69
2022-10-26T18:56:15.114Z,51.23
2022-10-26T18:58:43.940Z,51.46
2022-10-26T19:01:14.644Z,51.30
2022-10-26T19:03:42.453Z,51.13
2022-10-26T19:06:20.035Z,51.15
2022-10-26T19:08:46.864Z,51.13
2022-10-26T19:11:16.310Z,51.09
2022-10-26T19:13:43.534Z,51.04
2022-10-26T19:16:21.692Z,51.02
2022-10-26T19:18:56.197Z,50.84
2022-10-26T19:21:23.569Z,50.80
2022-10-26T19:23:52.354Z,50.81
2022-10-26T19:26:22.211Z,50.83
2022-10-26T19:28:55.171Z,50.89
2022-10-26T19:31:24.884Z,50.73
2022-10-26T19:33:56.345Z,50.69
2022-10-26T19:36:22.945Z,50.93
2022-10-26T19:38:49.541Z,50.78
2022-10-26T19:41:16.648Z,50.74
2022-10-26T19:43:43.432Z,50.54
2022-10-26T19:46:11.267Z,50.43
2022-10-26T19:48:38.325Z,50.54
2022-10-26T19:51:04.916Z,50.34
2022-10-26T19:53:31.865Z,50.46
2022-10-26T19:56:01.409Z,50.65
2022-10-26T19:58:31.630Z,50.49
2022-10-26T20:00:59.972Z,50.58
2022-10-26T20:03:28.978Z,50.69
2022-10-26T20:06:01.068Z,50.51
2022-10-26T20:08:28.722Z,50.36
2022-10-26T20:10:57.241Z,50.38
2022-10-26T20:13:24.330Z,50.46
2022-10-26T20:15:51.980Z,50.29
2022-10-26T20:18:19.475Z,50.32
2022-10-26T20:20:46.365Z,50.29
2022-10-26T20:23:12.868Z,50.21
2022-10-26T20:25:48.401Z,50.29
2022-10-26T20:28:16.356Z,50.24
2022-10-26T20:30:44.227Z,50.22
2022-10-26T20:33:11.808Z,50.38
2022-10-26T20:35:38.659Z,50.31
2022-10-26T20:38:07.169Z,50.29
2022-10-26T20:40:34.020Z,50.23
2022-10-26T20:43:00.831Z,50.20
2022-10-26T20:45:30.402Z,50.10
2022-10-26T20:47:57.840Z,50.16
2022-10-26T20:50:25.339Z,50.22
2022-10-26T20:52:58.660Z,50.11
2022-10-26T20:55:27.980Z,50.09
2022-10-26T20:58:01.265Z,50.03
2022-10-26T21:00:29.941Z,50.01
2022-10-26T21:02:56.379Z,50.14
2022-10-26T21:05:23.072Z,50.05
2022-10-26T21:07:49.887Z,50.01
2022-10-26T21:10:16.490Z,50.07
2022-10-26T21:12:42.993Z,50.08
2022-10-26T21:15:09.735Z,49.98
2022-10-26T21:17:36.247Z,50.09
2022-10-26T21:20:03.133Z,49.92
2022-10-26T21:22:29.563Z,50.05
2022-10-26T21:24:56.012Z,49.83
2022-10-26T21:27:22.445Z,49.97
2022-10-26T21:29:48.886Z,49.97
2022-10-26T21:32:15.373Z,50.05
2022-10-26T21:34:41.876Z,50.05
2022-10-26T21:37:08.334Z,49.87
2022-10-26T21:39:34.798Z,49.90
2022-10-26T21:42:02.876Z,50.03
2022-10-26T21:44:44.562Z,50.06
2022-10-26T21:47:11.374Z,49.74
2022-10-26T21:49:38.283Z,50.11
2022-10-26T21:52:05.809Z,49.78
2022-10-26T21:54:32.568Z,49.99
2022-10-26T21:56:59.161Z,49.96
2022-10-26T21:59:25.627Z,50.27
2022-10-26T22:01:52.184Z,50.25
2022-10-26T22:04:18.736Z,50.17
2022-10-26T22:06:45.212Z,50.27
2022-10-26T22:09:11.727Z,50.15
2022-10-26T22:11:38.181Z,50.19
2022-10-26T22:14:04.636Z,50.21
2022-10-26T22:16:32.826Z,50.15
2022-10-26T22:19:04.653Z,50.25
2022-10-26T22:21:35.036Z,50.21
2022-10-26T22:24:01.560Z,50.17
2022-10-26T22:26:28.440Z,50.08
2022-10-26T22:28:56.776Z,50.34
2022-10-26T22:31:26.158Z,50.26
2022-10-26T22:33:58.536Z,50.42
2022-10-26T22:36:27.161Z,50.20
2022-10-26T22:38:53.843Z,50.20
2022-10-26T22:41:21.988Z,50.27
2022-10-26T22:43:50.716Z,50.30
2022-10-26T22:46:22.852Z,50.37
2022-10-26T22:48:56.361Z,50.21
2022-10-26T22:51:23.407Z,50.20
2022-10-26T22:53:54.919Z,50.42
2022-10-26T22:56:23.167Z,50.19
2022-10-26T22:58:52.049Z,50.22
2022-10-26T23:01:24.514Z,50.36
2022-10-26T23:03:52.586Z,50.21
2022-10-26T23:06:20.358Z,50.27
2022-10-26T23:08:46.809Z,50.17
2022-10-26T23:11:16.943Z,50.24
2022-10-26T23:13:44.076Z,50.15
2022-10-26T23:16:13.078Z,50.14
2022-10-26T23:18:40.080Z,50.15
2022-10-26T23:21:08.608Z,50.25
2022-10-26T23:23:35.975Z,50.16
2022-10-26T23:26:09.998Z,50.23
2022-10-26T23:28:36.781Z,50.15
2022-10-26T23:31:03.332Z,50.02
2022-10-26T23:33:29.795Z,50.26
2022-10-26T23:35:57.377Z,50.24
2022-10-26T23:38:24.684Z,50.32
2022-10-26T23:40:52.788Z,50.21
2022-10-26T23:43:19.745Z,50.36
2022-10-26T23:45:47.029Z,50.09
2022-10-26T23:48:14.306Z,50.25
2022-10-26T23:50:45.430Z,50.27
2022-10-26T23:53:13.316Z,50.18
2022-10-26T23:55:40.061Z,50.06
2022-10-26T23:58:06.624Z,50.08
